sensor_id;sensor_type;location;lat;lon;timestamp;P1;durP1;ratioP1;P2;durP2;ratioP2
43529;SDS011;55654;50.966;6.878;2022-12-18T00:01:15;38.28;;;15.88;;
43529;SDS011;55654;50.966;6.878;2022-12-18T00:03:44;32.22;;;14.40;;
43529;SDS011;55654;50.966;6.878;2022-12-18T00:06:11;36.00;;;15.77;;
43529;SDS011;55654;50.966;6.878;2022-12-18T00:08:38;29.00;;;13.40;;
43529;SDS011;55654;50.966;6.878;2022-12-18T00:11:05;31.35;;;14.98;;
43529;SDS011;55654;50.966;6.878;2022-12-18T00:13:31;29.52;;;13.52;;
43529;SDS011;55654;50.966;6.878;2022-12-18T00:16:04;32.45;;;14.82;;
43529;SDS011;55654;50.966;6.878;2022-12-18T00:18:31;34.63;;;14.20;;
43529;SDS011;55654;50.966;6.878;2022-12-18T00:21:01;39.47;;;15.32;;
43529;SDS011;55654;50.966;6.878;2022-12-18T00:23:28;34.03;;;15.57;;
43529;SDS011;55654;50.966;6.878;2022-12-18T00:25:54;29.40;;;13.57;;
43529;SDS011;55654;50.966;6.878;2022-12-18T00:28:20;32.47;;;14.98;;
43529;SDS011;55654;50.966;6.878;2022-12-18T00:30:46;34.38;;;15.70;;
43529;SDS011;55654;50.966;6.878;2022-12-18T00:33:16;27.65;;;13.88;;
43529;SDS011;55654;50.966;6.878;2022-12-18T00:35:42;35.80;;;16.38;;
43529;SDS011;55654;50.966;6.878;2022-12-18T00:38:08;29.40;;;13.60;;
43529;SDS011;55654;50.966;6.878;2022-12-18T00:40:34;35.67;;;15.80;;
43529;SDS011;55654;50.966;6.878;2022-12-18T00:43:00;35.42;;;14.85;;
43529;SDS011;55654;50.966;6.878;2022-12-18T00:45:27;35.80;;;15.10;;
43529;SDS011;55654;50.966;6.878;2022-12-18T00:47:54;34.78;;;15.55;;
43529;SDS011;55654;50.966;6.878;2022-12-18T00:50:20;33.70;;;14.85;;
43529;SDS011;55654;50.966;6.878;2022-12-18T00:52:46;44.00;;;16.35;;
43529;SDS011;55654;50.966;6.878;2022-12-18T00:55:13;34.13;;;15.23;;
43529;SDS011;55654;50.966;6.878;2022-12-18T00:57:39;35.35;;;14.70;;
43529;SDS011;55654;50.966;6.878;2022-12-18T01:00:08;32.50;;;15.05;;
43529;SDS011;55654;50.966;6.878;2022-12-18T01:02:34;32.80;;;15.27;;
43529;SDS011;55654;50.966;6.878;2022-12-18T01:05:00;34.45;;;16.10;;
43529;SDS011;55654;50.966;6.878;2022-12-18T01:07:26;31.98;;;14.90;;
43529;SDS011;55654;50.966;6.878;2022-12-18T01:09:53;35.45;;;15.45;;
43529;SDS011;55654;50.966;6.878;2022-12-18T01:12:19;36.15;;;16.40;;
43529;SDS011;55654;50.966;6.878;2022-12-18T01:14:45;31.80;;;14.77;;
43529;SDS011;55654;50.966;6.878;2022-12-18T01:17:13;32.45;;;14.48;;
43529;SDS011;55654;50.966;6.878;2022-12-18T01:19:39;33.63;;;15.68;;
43529;SDS011;55654;50.966;6.878;2022-12-18T01:22:05;32.03;;;15.80;;
43529;SDS011;55654;50.966;6.878;2022-12-18T01:24:31;32.97;;;15.10;;
43529;SDS011;55654;50.966;6.878;2022-12-18T01:26:57;31.90;;;14.52;;
43529;SDS011;55654;50.966;6.878;2022-12-18T01:29:23;33.60;;;15.40;;
43529;SDS011;55654;50.966;6.878;2022-12-18T01:31:49;38.72;;;16.35;;
43529;SDS011;55654;50.966;6.878;2022-12-18T01:34:16;37.13;;;16.27;;
43529;SDS011;55654;50.966;6.878;2022-12-18T01:36:42;32.13;;;14.70;;
43529;SDS011;55654;50.966;6.878;2022-12-18T01:39:12;47.75;;;16.88;;
43529;SDS011;55654;50.966;6.878;2022-12-18T01:41:38;32.95;;;16.63;;
43529;SDS011;55654;50.966;6.878;2022-12-18T01:47:07;36.53;;;16.15;;
43529;SDS011;55654;50.966;6.878;2022-12-18T01:49:33;34.72;;;16.30;;
43529;SDS011;55654;50.966;6.878;2022-12-18T01:52:00;33.88;;;16.27;;
43529;SDS011;55654;50.966;6.878;2022-12-18T01:54:28;37.15;;;16.17;;
43529;SDS011;55654;50.966;6.878;2022-12-18T01:56:54;35.00;;;15.93;;
43529;SDS011;55654;50.966;6.878;2022-12-18T01:59:20;34.05;;;15.73;;
43529;SDS011;55654;50.966;6.878;2022-12-18T02:01:46;34.20;;;16.33;;
43529;SDS011;55654;50.966;6.878;2022-12-18T02:06:49;32.80;;;15.38;;
43529;SDS011;55654;50.966;6.878;2022-12-18T02:09:20;32.65;;;14.95;;
43529;SDS011;55654;50.966;6.878;2022-12-18T02:11:52;33.53;;;16.08;;
43529;SDS011;55654;50.966;6.878;2022-12-18T02:19:34;32.77;;;15.10;;
43529;SDS011;55654;50.966;6.878;2022-12-18T02:24:33;32.30;;;15.97;;
43529;SDS011;55654;50.966;6.878;2022-12-18T02:27:01;30.38;;;15.82;;
43529;SDS011;55654;50.966;6.878;2022-12-18T02:29:37;41.75;;;16.17;;
43529;SDS011;55654;50.966;6.878;2022-12-18T02:32:05;38.85;;;16.40;;
43529;SDS011;55654;50.966;6.878;2022-12-18T02:34:33;35.58;;;17.23;;
43529;SDS011;55654;50.966;6.878;2022-12-18T02:37:01;36.90;;;17.30;;
43529;SDS011;55654;50.966;6.878;2022-12-18T02:39:28;31.77;;;16.30;;
43529;SDS011;55654;50.966;6.878;2022-12-18T02:41:55;33.00;;;16.30;;
43529;SDS011;55654;50.966;6.878;2022-12-18T02:44:22;35.88;;;17.00;;
43529;SDS011;55654;50.966;6.878;2022-12-18T02:46:52;34.30;;;16.10;;
43529;SDS011;55654;50.966;6.878;2022-12-18T02:49:35;34.15;;;16.25;;
43529;SDS011;55654;50.966;6.878;2022-12-18T02:54:37;28.87;;;15.10;;
43529;SDS011;55654;50.966;6.878;2022-12-18T03:00:08;31.90;;;15.55;;
43529;SDS011;55654;50.966;6.878;2022-12-18T03:03:19;35.78;;;16.38;;
43529;SDS011;55654;50.966;6.878;2022-12-18T03:05:44;31.75;;;14.50;;
43529;SDS011;55654;50.966;6.878;2022-12-18T03:08:22;29.00;;;15.18;;
43529;SDS011;55654;50.966;6.878;2022-12-18T03:10:51;32.00;;;15.50;;
43529;SDS011;55654;50.966;6.878;2022-12-18T03:13:31;36.80;;;15.63;;
43529;SDS011;55654;50.966;6.878;2022-12-18T03:16:00;29.77;;;14.52;;
43529;SDS011;55654;50.966;6.878;2022-12-18T03:18:32;34.17;;;14.90;;
43529;SDS011;55654;50.966;6.878;2022-12-18T03:21:00;34.20;;;15.57;;
43529;SDS011;55654;50.966;6.878;2022-12-18T03:23:30;33.47;;;15.02;;
43529;SDS011;55654;50.966;6.878;2022-12-18T03:25:58;31.85;;;15.23;;
43529;SDS011;55654;50.966;6.878;2022-12-18T03:28:25;29.55;;;14.48;;
43529;SDS011;55654;50.966;6.878;2022-12-18T03:30:54;28.20;;;14.60;;
43529;SDS011;55654;50.966;6.878;2022-12-18T03:33:24;31.45;;;14.85;;
43529;SDS011;55654;50.966;6.878;2022-12-18T03:35:51;33.35;;;15.27;;
43529;SDS011;55654;50.966;6.878;2022-12-18T03:38:17;34.55;;;16.15;;
43529;SDS011;55654;50.966;6.878;2022-12-18T03:40:45;34.58;;;15.45;;
43529;SDS011;55654;50.966;6.878;2022-12-18T03:43:22;32.75;;;14.93;;
43529;SDS011;55654;50.966;6.878;2022-12-18T03:45:54;33.83;;;15.63;;
43529;SDS011;55654;50.966;6.878;2022-12-18T03:48:29;34.38;;;15.75;;
43529;SDS011;55654;50.966;6.878;2022-12-18T03:50:57;31.45;;;14.90;;
43529;SDS011;55654;50.966;6.878;2022-12-18T03:56:10;29.75;;;15.23;;
43529;SDS011;55654;50.966;6.878;2022-12-18T03:58:38;31.13;;;16.80;;
43529;SDS011;55654;50.966;6.878;2022-12-18T04:01:09;32.42;;;15.45;;
43529;SDS011;55654;50.966;6.878;2022-12-18T04:03:40;31.27;;;14.98;;
43529;SDS011;55654;50.966;6.878;2022-12-18T04:06:08;31.73;;;14.63;;
43529;SDS011;55654;50.966;6.878;2022-12-18T04:08:35;28.60;;;14.75;;
43529;SDS011;55654;50.966;6.878;2022-12-18T04:11:01;29.85;;;15.13;;
43529;SDS011;55654;50.966;6.878;2022-12-18T04:13:28;33.60;;;15.60;;
43529;SDS011;55654;50.966;6.878;2022-12-18T04:15:55;32.67;;;15.50;;
43529;SDS011;55654;50.966;6.878;2022-12-18T04:18:21;31.73;;;15.82;;
43529;SDS011;55654;50.966;6.878;2022-12-18T04:20:47;30.20;;;15.65;;
43529;SDS011;55654;50.966;6.878;2022-12-18T04:23:13;34.60;;;15.93;;
43529;SDS011;55654;50.966;6.878;2022-12-18T04:25:41;31.67;;;14.57;;
43529;SDS011;55654;50.966;6.878;2022-12-18T04:28:07;31.88;;;16.50;;
43529;SDS011;55654;50.966;6.878;2022-12-18T04:30:33;32.95;;;15.45;;
43529;SDS011;55654;50.966;6.878;2022-12-18T04:32:59;34.95;;;15.93;;
43529;SDS011;55654;50.966;6.878;2022-12-18T04:35:25;34.42;;;16.73;;
43529;SDS011;55654;50.966;6.878;2022-12-18T04:37:52;32.53;;;16.23;;
43529;SDS011;55654;50.966;6.878;2022-12-18T04:40:18;34.17;;;16.40;;
43529;SDS011;55654;50.966;6.878;2022-12-18T04:42:46;31.40;;;15.80;;
43529;SDS011;55654;50.966;6.878;2022-12-18T04:45:12;34.28;;;16.58;;
43529;SDS011;55654;50.966;6.878;2022-12-18T04:47:41;35.22;;;17.80;;
43529;SDS011;55654;50.966;6.878;2022-12-18T04:50:07;39.28;;;18.17;;
43529;SDS011;55654;50.966;6.878;2022-12-18T04:52:33;36.95;;;18.33;;
43529;SDS011;55654;50.966;6.878;2022-12-18T04:54:59;40.33;;;18.77;;
43529;SDS011;55654;50.966;6.878;2022-12-18T04:57:25;35.30;;;16.65;;
43529;SDS011;55654;50.966;6.878;2022-12-18T04:59:51;36.40;;;17.33;;
43529;SDS011;55654;50.966;6.878;2022-12-18T05:02:17;37.58;;;17.10;;
43529;SDS011;55654;50.966;6.878;2022-12-18T05:04:43;36.72;;;17.08;;
43529;SDS011;55654;50.966;6.878;2022-12-18T05:07:09;34.95;;;17.98;;
43529;SDS011;55654;50.966;6.878;2022-12-18T05:09:35;39.25;;;17.92;;
43529;SDS011;55654;50.966;6.878;2022-12-18T05:12:04;33.80;;;16.65;;
43529;SDS011;55654;50.966;6.878;2022-12-18T05:14:30;37.00;;;16.70;;
43529;SDS011;55654;50.966;6.878;2022-12-18T05:16:56;40.92;;;17.42;;
43529;SDS011;55654;50.966;6.878;2022-12-18T05:19:22;34.90;;;16.33;;
43529;SDS011;55654;50.966;6.878;2022-12-18T05:21:50;42.88;;;18.83;;
43529;SDS011;55654;50.966;6.878;2022-12-18T05:24:18;40.53;;;18.70;;
43529;SDS011;55654;50.966;6.878;2022-12-18T05:26:45;37.60;;;17.00;;
43529;SDS011;55654;50.966;6.878;2022-12-18T05:29:14;36.25;;;17.85;;
43529;SDS011;55654;50.966;6.878;2022-12-18T05:31:40;35.10;;;17.67;;
43529;SDS011;55654;50.966;6.878;2022-12-18T05:34:06;41.22;;;19.30;;
43529;SDS011;55654;50.966;6.878;2022-12-18T05:36:32;41.97;;;19.65;;
43529;SDS011;55654;50.966;6.878;2022-12-18T05:38:58;36.53;;;17.85;;
43529;SDS011;55654;50.966;6.878;2022-12-18T05:41:25;40.13;;;16.25;;
43529;SDS011;55654;50.966;6.878;2022-12-18T05:43:51;38.40;;;17.75;;
43529;SDS011;55654;50.966;6.878;2022-12-18T05:46:17;34.20;;;17.92;;
43529;SDS011;55654;50.966;6.878;2022-12-18T05:48:44;37.55;;;17.67;;
43529;SDS011;55654;50.966;6.878;2022-12-18T05:51:14;38.60;;;18.23;;
43529;SDS011;55654;50.966;6.878;2022-12-18T05:53:42;39.83;;;18.70;;
43529;SDS011;55654;50.966;6.878;2022-12-18T05:56:09;41.60;;;17.52;;
43529;SDS011;55654;50.966;6.878;2022-12-18T05:58:35;42.53;;;18.17;;
43529;SDS011;55654;50.966;6.878;2022-12-18T06:01:09;40.55;;;17.88;;
43529;SDS011;55654;50.966;6.878;2022-12-18T06:03:35;38.40;;;19.02;;
43529;SDS011;55654;50.966;6.878;2022-12-18T06:06:01;36.67;;;18.42;;
43529;SDS011;55654;50.966;6.878;2022-12-18T06:08:28;36.30;;;17.70;;
43529;SDS011;55654;50.966;6.878;2022-12-18T06:10:54;38.80;;;18.63;;
43529;SDS011;55654;50.966;6.878;2022-12-18T06:13:20;39.78;;;18.98;;
43529;SDS011;55654;50.966;6.878;2022-12-18T06:15:46;37.67;;;18.00;;
43529;SDS011;55654;50.966;6.878;2022-12-18T06:18:12;40.33;;;18.67;;
43529;SDS011;55654;50.966;6.878;2022-12-18T06:20:43;35.47;;;17.80;;
43529;SDS011;55654;50.966;6.878;2022-12-18T06:23:12;41.03;;;18.73;;
43529;SDS011;55654;50.966;6.878;2022-12-18T06:25:38;41.88;;;19.08;;
43529;SDS011;55654;50.966;6.878;2022-12-18T06:28:04;36.45;;;17.25;;
43529;SDS011;55654;50.966;6.878;2022-12-18T06:30:33;40.60;;;18.55;;
43529;SDS011;55654;50.966;6.878;2022-12-18T06:32:59;39.28;;;19.27;;
43529;SDS011;55654;50.966;6.878;2022-12-18T06:35:25;38.63;;;18.58;;
43529;SDS011;55654;50.966;6.878;2022-12-18T06:37:51;41.25;;;19.25;;
43529;SDS011;55654;50.966;6.878;2022-12-18T06:40:17;41.50;;;19.98;;
43529;SDS011;55654;50.966;6.878;2022-12-18T06:42:43;38.33;;;18.75;;
43529;SDS011;55654;50.966;6.878;2022-12-18T06:45:09;38.05;;;18.67;;
43529;SDS011;55654;50.966;6.878;2022-12-18T06:47:36;39.13;;;18.55;;
43529;SDS011;55654;50.966;6.878;2022-12-18T06:50:02;36.42;;;17.73;;
43529;SDS011;55654;50.966;6.878;2022-12-18T06:52:28;38.28;;;18.25;;
43529;SDS011;55654;50.966;6.878;2022-12-18T06:54:57;38.05;;;17.98;;
43529;SDS011;55654;50.966;6.878;2022-12-18T06:57:23;40.28;;;18.83;;
43529;SDS011;55654;50.966;6.878;2022-12-18T06:59:49;38.25;;;18.08;;
43529;SDS011;55654;50.966;6.878;2022-12-18T07:02:15;38.30;;;17.60;;
43529;SDS011;55654;50.966;6.878;2022-12-18T07:04:41;38.92;;;19.02;;
43529;SDS011;55654;50.966;6.878;2022-12-18T07:07:07;42.60;;;17.42;;
43529;SDS011;55654;50.966;6.878;2022-12-18T07:09:35;41.22;;;19.60;;
43529;SDS011;55654;50.966;6.878;2022-12-18T07:12:01;36.75;;;18.27;;
43529;SDS011;55654;50.966;6.878;2022-12-18T07:14:27;35.53;;;16.58;;
43529;SDS011;55654;50.966;6.878;2022-12-18T07:16:53;36.55;;;16.95;;
43529;SDS011;55654;50.966;6.878;2022-12-18T07:19:19;39.55;;;17.75;;
43529;SDS011;55654;50.966;6.878;2022-12-18T07:21:45;37.20;;;17.85;;
43529;SDS011;55654;50.966;6.878;2022-12-18T07:24:11;35.78;;;18.27;;
43529;SDS011;55654;50.966;6.878;2022-12-18T07:26:40;37.28;;;17.70;;
43529;SDS011;55654;50.966;6.878;2022-12-18T07:29:06;37.88;;;17.73;;
43529;SDS011;55654;50.966;6.878;2022-12-18T07:31:32;37.35;;;18.00;;
43529;SDS011;55654;50.966;6.878;2022-12-18T07:33:58;36.30;;;17.38;;
43529;SDS011;55654;50.966;6.878;2022-12-18T07:36:24;37.10;;;17.92;;
43529;SDS011;55654;50.966;6.878;2022-12-18T07:38:50;36.00;;;16.98;;
43529;SDS011;55654;50.966;6.878;2022-12-18T07:41:17;38.42;;;17.52;;
43529;SDS011;55654;50.966;6.878;2022-12-18T07:43:43;35.67;;;17.70;;
43529;SDS011;55654;50.966;6.878;2022-12-18T07:46:09;33.58;;;17.27;;
43529;SDS011;55654;50.966;6.878;2022-12-18T07:48:35;36.60;;;17.35;;
43529;SDS011;55654;50.966;6.878;2022-12-18T07:51:02;39.43;;;18.87;;
43529;SDS011;55654;50.966;6.878;2022-12-18T07:53:32;37.60;;;18.05;;
43529;SDS011;55654;50.966;6.878;2022-12-18T07:56:02;37.58;;;18.00;;
43529;SDS011;55654;50.966;6.878;2022-12-18T07:58:29;38.72;;;18.70;;
43529;SDS011;55654;50.966;6.878;2022-12-18T08:01:02;36.88;;;18.75;;
43529;SDS011;55654;50.966;6.878;2022-12-18T08:03:30;34.03;;;16.92;;
43529;SDS011;55654;50.966;6.878;2022-12-18T08:06:00;36.17;;;17.40;;
43529;SDS011;55654;50.966;6.878;2022-12-18T08:08:31;37.80;;;18.98;;
43529;SDS011;55654;50.966;6.878;2022-12-18T08:11:04;37.15;;;17.70;;
43529;SDS011;55654;50.966;6.878;2022-12-18T08:13:30;36.47;;;17.73;;
43529;SDS011;55654;50.966;6.878;2022-12-18T08:18:23;31.05;;;16.52;;
43529;SDS011;55654;50.966;6.878;2022-12-18T08:20:49;37.13;;;17.20;;
43529;SDS011;55654;50.966;6.878;2022-12-18T08:23:15;39.45;;;17.73;;
43529;SDS011;55654;50.966;6.878;2022-12-18T08:25:41;33.45;;;17.38;;
43529;SDS011;55654;50.966;6.878;2022-12-18T08:28:07;36.67;;;16.85;;
43529;SDS011;55654;50.966;6.878;2022-12-18T08:30:33;38.97;;;18.40;;
43529;SDS011;55654;50.966;6.878;2022-12-18T08:32:59;38.13;;;17.33;;
43529;SDS011;55654;50.966;6.878;2022-12-18T08:35:25;36.85;;;16.70;;
43529;SDS011;55654;50.966;6.878;2022-12-18T08:37:51;37.60;;;17.60;;
43529;SDS011;55654;50.966;6.878;2022-12-18T08:40:20;34.50;;;17.80;;
43529;SDS011;55654;50.966;6.878;2022-12-18T08:42:46;31.15;;;16.48;;
43529;SDS011;55654;50.966;6.878;2022-12-18T08:45:31;38.80;;;16.85;;
43529;SDS011;55654;50.966;6.878;2022-12-18T08:47:57;37.35;;;17.63;;
43529;SDS011;55654;50.966;6.878;2022-12-18T08:50:25;32.93;;;16.23;;
43529;SDS011;55654;50.966;6.878;2022-12-18T08:52:51;47.60;;;18.17;;
43529;SDS011;55654;50.966;6.878;2022-12-18T08:55:17;32.22;;;17.42;;
43529;SDS011;55654;50.966;6.878;2022-12-18T08:57:47;30.10;;;15.20;;
43529;SDS011;55654;50.966;6.878;2022-12-18T09:00:14;35.13;;;16.55;;
43529;SDS011;55654;50.966;6.878;2022-12-18T09:02:40;33.42;;;16.75;;
43529;SDS011;55654;50.966;6.878;2022-12-18T09:05:06;36.10;;;16.03;;
43529;SDS011;55654;50.966;6.878;2022-12-18T09:07:32;35.57;;;15.43;;
43529;SDS011;55654;50.966;6.878;2022-12-18T09:09:58;34.57;;;15.87;;
43529;SDS011;55654;50.966;6.878;2022-12-18T09:12:24;29.83;;;15.80;;
43529;SDS011;55654;50.966;6.878;2022-12-18T09:14:53;33.47;;;16.13;;
43529;SDS011;55654;50.966;6.878;2022-12-18T09:17:19;30.23;;;16.10;;
43529;SDS011;55654;50.966;6.878;2022-12-18T09:19:47;36.67;;;16.73;;
43529;SDS011;55654;50.966;6.878;2022-12-18T09:22:14;34.60;;;16.63;;
43529;SDS011;55654;50.966;6.878;2022-12-18T09:24:40;42.97;;;16.20;;
43529;SDS011;55654;50.966;6.878;2022-12-18T09:27:09;28.63;;;15.27;;
43529;SDS011;55654;50.966;6.878;2022-12-18T09:29:37;38.27;;;17.57;;
43529;SDS011;55654;50.966;6.878;2022-12-18T09:32:04;28.60;;;15.80;;
43529;SDS011;55654;50.966;6.878;2022-12-18T09:34:30;31.77;;;15.80;;
43529;SDS011;55654;50.966;6.878;2022-12-18T09:36:56;31.70;;;16.03;;
43529;SDS011;55654;50.966;6.878;2022-12-18T09:39:22;26.87;;;15.27;;
43529;SDS011;55654;50.966;6.878;2022-12-18T09:41:54;32.63;;;15.30;;
43529;SDS011;55654;50.966;6.878;2022-12-18T09:47:34;28.03;;;14.20;;
43529;SDS011;55654;50.966;6.878;2022-12-18T09:49:43;29.23;;;15.43;;
43529;SDS011;55654;50.966;6.878;2022-12-18T09:52:11;30.47;;;15.93;;
43529;SDS011;55654;50.966;6.878;2022-12-18T09:54:39;29.03;;;14.97;;
43529;SDS011;55654;50.966;6.878;2022-12-18T09:57:06;28.97;;;15.13;;
43529;SDS011;55654;50.966;6.878;2022-12-18T09:59:37;28.60;;;14.93;;
43529;SDS011;55654;50.966;6.878;2022-12-18T10:02:18;27.07;;;15.47;;
43529;SDS011;55654;50.966;6.878;2022-12-18T10:04:47;28.50;;;15.07;;
43529;SDS011;55654;50.966;6.878;2022-12-18T10:07:19;24.73;;;13.60;;
43529;SDS011;55654;50.966;6.878;2022-12-18T10:09:52;31.98;;;15.93;;
43529;SDS011;55654;50.966;6.878;2022-12-18T10:12:38;26.90;;;13.73;;
43529;SDS011;55654;50.966;6.878;2022-12-18T10:15:13;33.07;;;14.53;;
43529;SDS011;55654;50.966;6.878;2022-12-18T10:17:46;28.23;;;14.37;;
43529;SDS011;55654;50.966;6.878;2022-12-18T10:20:16;28.95;;;15.32;;
43529;SDS011;55654;50.966;6.878;2022-12-18T10:22:48;35.23;;;15.77;;
43529;SDS011;55654;50.966;6.878;2022-12-18T10:27:42;30.67;;;15.77;;
43529;SDS011;55654;50.966;6.878;2022-12-18T10:30:15;24.83;;;13.87;;
43529;SDS011;55654;50.966;6.878;2022-12-18T10:32:42;25.63;;;14.53;;
43529;SDS011;55654;50.966;6.878;2022-12-18T10:35:11;26.67;;;13.53;;
43529;SDS011;55654;50.966;6.878;2022-12-18T10:37:58;30.03;;;13.13;;
43529;SDS011;55654;50.966;6.878;2022-12-18T10:40:28;28.00;;;14.23;;
43529;SDS011;55654;50.966;6.878;2022-12-18T10:43:05;28.77;;;15.67;;
43529;SDS011;55654;50.966;6.878;2022-12-18T10:45:31;25.50;;;13.70;;
43529;SDS011;55654;50.966;6.878;2022-12-18T10:48:00;28.23;;;15.27;;
43529;SDS011;55654;50.966;6.878;2022-12-18T10:52:56;28.33;;;14.67;;
43529;SDS011;55654;50.966;6.878;2022-12-18T10:57:51;27.50;;;14.00;;
43529;SDS011;55654;50.966;6.878;2022-12-18T11:00:21;26.00;;;14.70;;
43529;SDS011;55654;50.966;6.878;2022-12-18T11:02:49;29.70;;;14.73;;
43529;SDS011;55654;50.966;6.878;2022-12-18T11:05:31;27.80;;;14.77;;
43529;SDS011;55654;50.966;6.878;2022-12-18T11:07:58;31.70;;;14.80;;
43529;SDS011;55654;50.966;6.878;2022-12-18T11:10:28;25.07;;;14.57;;
43529;SDS011;55654;50.966;6.878;2022-12-18T11:13:08;24.70;;;13.68;;
43529;SDS011;55654;50.966;6.878;2022-12-18T11:15:34;28.20;;;13.93;;
43529;SDS011;55654;50.966;6.878;2022-12-18T11:18:00;26.73;;;14.60;;
43529;SDS011;55654;50.966;6.878;2022-12-18T11:20:31;26.87;;;14.37;;
43529;SDS011;55654;50.966;6.878;2022-12-18T11:23:12;27.20;;;14.67;;
43529;SDS011;55654;50.966;6.878;2022-12-18T11:26:01;26.97;;;14.23;;
43529;SDS011;55654;50.966;6.878;2022-12-18T11:28:35;27.20;;;14.30;;
43529;SDS011;55654;50.966;6.878;2022-12-18T11:33:34;25.27;;;13.30;;
43529;SDS011;55654;50.966;6.878;2022-12-18T11:36:08;29.13;;;14.20;;
43529;SDS011;55654;50.966;6.878;2022-12-18T11:46:17;30.10;;;13.10;;
43529;SDS011;55654;50.966;6.878;2022-12-18T11:48:45;30.60;;;14.93;;
43529;SDS011;55654;50.966;6.878;2022-12-18T11:51:23;25.63;;;14.43;;
43529;SDS011;55654;50.966;6.878;2022-12-18T11:53:51;28.27;;;14.50;;
43529;SDS011;55654;50.966;6.878;2022-12-18T11:56:30;25.90;;;13.90;;
43529;SDS011;55654;50.966;6.878;2022-12-18T12:06:33;30.30;;;14.82;;
43529;SDS011;55654;50.966;6.878;2022-12-18T12:11:35;30.13;;;15.47;;
43529;SDS011;55654;50.966;6.878;2022-12-18T12:16:57;28.57;;;14.93;;
43529;SDS011;55654;50.966;6.878;2022-12-18T12:19:32;32.73;;;15.87;;
43529;SDS011;55654;50.966;6.878;2022-12-18T12:30:05;27.07;;;14.97;;
43529;SDS011;55654;50.966;6.878;2022-12-18T12:39:59;30.90;;;16.50;;
43529;SDS011;55654;50.966;6.878;2022-12-18T12:45:14;30.97;;;15.23;;
43529;SDS011;55654;50.966;6.878;2022-12-18T12:47:42;30.50;;;15.90;;
43529;SDS011;55654;50.966;6.878;2022-12-18T12:50:16;28.17;;;16.23;;
43529;SDS011;55654;50.966;6.878;2022-12-18T12:52:46;33.03;;;15.57;;
43529;SDS011;55654;50.966;6.878;2022-12-18T12:55:31;32.37;;;16.33;;
43529;SDS011;55654;50.966;6.878;2022-12-18T13:00:25;31.93;;;16.93;;
43529;SDS011;55654;50.966;6.878;2022-12-18T13:05:25;32.03;;;17.27;;
43529;SDS011;55654;50.966;6.878;2022-12-18T13:07:59;30.27;;;16.73;;
43529;SDS011;55654;50.966;6.878;2022-12-18T13:10:31;30.13;;;16.20;;
43529;SDS011;55654;50.966;6.878;2022-12-18T13:20:50;36.83;;;18.03;;
43529;SDS011;55654;50.966;6.878;2022-12-18T13:25:45;32.93;;;17.07;;
43529;SDS011;55654;50.966;6.878;2022-12-18T13:28:54;32.93;;;17.70;;
43529;SDS011;55654;50.966;6.878;2022-12-18T13:31:01;33.40;;;16.87;;
43529;SDS011;55654;50.966;6.878;2022-12-18T13:36:30;35.50;;;19.50;;
43529;SDS011;55654;50.966;6.878;2022-12-18T13:41:33;37.27;;;18.23;;
43529;SDS011;55654;50.966;6.878;2022-12-18T13:46:45;36.73;;;18.57;;
43529;SDS011;55654;50.966;6.878;2022-12-18T13:51:41;32.83;;;17.60;;
43529;SDS011;55654;50.966;6.878;2022-12-18T13:54:18;32.60;;;17.27;;
43529;SDS011;55654;50.966;6.878;2022-12-18T13:56:49;36.97;;;16.63;;
43529;SDS011;55654;50.966;6.878;2022-12-18T13:59:20;36.23;;;19.07;;
43529;SDS011;55654;50.966;6.878;2022-12-18T14:01:55;38.43;;;19.70;;
43529;SDS011;55654;50.966;6.878;2022-12-18T14:04:26;45.40;;;19.83;;
43529;SDS011;55654;50.966;6.878;2022-12-18T14:06:55;38.57;;;18.77;;
43529;SDS011;55654;50.966;6.878;2022-12-18T14:09:26;35.90;;;18.63;;
43529;SDS011;55654;50.966;6.878;2022-12-18T14:11:52;38.47;;;18.43;;
43529;SDS011;55654;50.966;6.878;2022-12-18T14:14:40;38.07;;;19.13;;
43529;SDS011;55654;50.966;6.878;2022-12-18T14:17:10;37.20;;;18.23;;
43529;SDS011;55654;50.966;6.878;2022-12-18T14:19:40;33.07;;;17.80;;
43529;SDS011;55654;50.966;6.878;2022-12-18T14:22:19;41.40;;;18.90;;
43529;SDS011;55654;50.966;6.878;2022-12-18T14:24:46;34.70;;;18.47;;
43529;SDS011;55654;50.966;6.878;2022-12-18T14:27:22;37.73;;;20.00;;
43529;SDS011;55654;50.966;6.878;2022-12-18T14:29:51;36.93;;;19.10;;
43529;SDS011;55654;50.966;6.878;2022-12-18T14:32:18;38.20;;;18.77;;
43529;SDS011;55654;50.966;6.878;2022-12-18T14:34:51;38.83;;;19.80;;
43529;SDS011;55654;50.966;6.878;2022-12-18T14:37:23;36.73;;;19.27;;
43529;SDS011;55654;50.966;6.878;2022-12-18T14:39:53;42.40;;;18.97;;
43529;SDS011;55654;50.966;6.878;2022-12-18T14:42:22;35.77;;;17.97;;
43529;SDS011;55654;50.966;6.878;2022-12-18T14:44:48;35.73;;;19.00;;
43529;SDS011;55654;50.966;6.878;2022-12-18T14:47:15;43.50;;;19.30;;
43529;SDS011;55654;50.966;6.878;2022-12-18T14:49:41;37.73;;;20.23;;
43529;SDS011;55654;50.966;6.878;2022-12-18T14:52:23;37.50;;;18.17;;
43529;SDS011;55654;50.966;6.878;2022-12-18T14:54:50;38.93;;;19.13;;
43529;SDS011;55654;50.966;6.878;2022-12-18T14:59:48;39.57;;;19.53;;
43529;SDS011;55654;50.966;6.878;2022-12-18T15:04:41;34.63;;;18.53;;
43529;SDS011;55654;50.966;6.878;2022-12-18T15:07:21;36.83;;;19.00;;
43529;SDS011;55654;50.966;6.878;2022-12-18T15:10:01;41.80;;;20.07;;
43529;SDS011;55654;50.966;6.878;2022-12-18T15:12:35;40.80;;;20.47;;
43529;SDS011;55654;50.966;6.878;2022-12-18T15:15:01;34.87;;;18.87;;
43529;SDS011;55654;50.966;6.878;2022-12-18T15:17:27;36.53;;;18.27;;
43529;SDS011;55654;50.966;6.878;2022-12-18T15:19:58;39.57;;;19.73;;
43529;SDS011;55654;50.966;6.878;2022-12-18T15:24:55;38.43;;;19.80;;
43529;SDS011;55654;50.966;6.878;2022-12-18T15:27:22;38.67;;;20.87;;
43529;SDS011;55654;50.966;6.878;2022-12-18T15:32:34;40.47;;;20.23;;
43529;SDS011;55654;50.966;6.878;2022-12-18T15:37:29;37.93;;;20.13;;
43529;SDS011;55654;50.966;6.878;2022-12-18T15:39:55;40.03;;;20.93;;
43529;SDS011;55654;50.966;6.878;2022-12-18T15:42:21;37.97;;;19.47;;
43529;SDS011;55654;50.966;6.878;2022-12-18T15:45:08;41.60;;;21.20;;
43529;SDS011;55654;50.966;6.878;2022-12-18T15:47:34;40.33;;;20.93;;
43529;SDS011;55654;50.966;6.878;2022-12-18T15:50:00;39.43;;;20.27;;
43529;SDS011;55654;50.966;6.878;2022-12-18T15:52:27;42.30;;;20.90;;
43529;SDS011;55654;50.966;6.878;2022-12-18T15:54:53;42.90;;;21.97;;
43529;SDS011;55654;50.966;6.878;2022-12-18T15:57:38;43.93;;;21.67;;
43529;SDS011;55654;50.966;6.878;2022-12-18T16:00:04;42.03;;;20.33;;
43529;SDS011;55654;50.966;6.878;2022-12-18T16:02:30;42.20;;;20.73;;
43529;SDS011;55654;50.966;6.878;2022-12-18T16:04:56;40.23;;;19.87;;
43529;SDS011;55654;50.966;6.878;2022-12-18T16:07:23;37.07;;;19.47;;
43529;SDS011;55654;50.966;6.878;2022-12-18T16:09:49;37.57;;;18.90;;
43529;SDS011;55654;50.966;6.878;2022-12-18T16:12:18;37.03;;;20.27;;
43529;SDS011;55654;50.966;6.878;2022-12-18T16:14:47;44.10;;;20.30;;
43529;SDS011;55654;50.966;6.878;2022-12-18T16:17:14;41.60;;;20.70;;
43529;SDS011;55654;50.966;6.878;2022-12-18T16:19:43;42.13;;;22.07;;
43529;SDS011;55654;50.966;6.878;2022-12-18T16:25:04;46.65;;;22.20;;
43529;SDS011;55654;50.966;6.878;2022-12-18T16:27:32;41.53;;;20.37;;